createdAt,value
2022-10-26T00:01:16.043Z,4.93
2022-10-26T00:04:18.338Z,4.97
2022-10-26T00:07:20.386Z,6.47
2022-10-26T00:10:22.477Z,7.30
2022-10-26T00:13:24.598Z,7.47
2022-10-26T00:16:28.312Z,6.20
2022-10-26T00:19:34.182Z,6.03
2022-10-26T00:22:36.202Z,6.13
2022-10-26T00:25:38.580Z,6.53
2022-10-26T00:28:40.630Z,6.50
2022-10-26T00:31:42.662Z,5.47
2022-10-26T00:34:44.862Z,7.03
2022-10-26T00:37:47.124Z,6.93
2022-10-26T00:40:51.160Z,6.22
2022-10-26T00:43:54.680Z,7.00
2022-10-26T00:46:56.884Z,7.22
2022-10-26T00:50:04.218Z,5.95
2022-10-26T00:53:07.293Z,5.85
2022-10-26T00:56:09.850Z,6.05
2022-10-26T00:59:14.300Z,7.00
2022-10-26T01:02:16.335Z,6.75
2022-10-26T01:05:19.585Z,7.78
2022-10-26T01:08:22.215Z,7.00
2022-10-26T01:11:24.366Z,6.70
2022-10-26T01:14:28.147Z,6.63
2022-10-26T01:17:53.403Z,6.55
2022-10-26T01:21:04.177Z,7.05
2022-10-26T01:24:24.729Z,6.55
2022-10-26T01:27:35.063Z,6.93
2022-10-26T01:30:41.270Z,7.25
2022-10-26T01:33:56.600Z,7.30
2022-10-26T01:37:07.720Z,6.22
2022-10-26T01:40:20.465Z,7.10
2022-10-26T01:43:23.978Z,7.47
2022-10-26T01:46:28.697Z,8.05
2022-10-26T01:49:36.444Z,7.45
2022-10-26T01:52:38.809Z,8.33
2022-10-26T01:55:53.366Z,6.63
2022-10-26T01:59:37.249Z,6.20
2022-10-26T02:02:47.468Z,8.18
2022-10-26T02:06:36.659Z,7.32
2022-10-26T02:10:04.939Z,6.63
2022-10-26T02:13:13.046Z,5.43
2022-10-26T02:16:21.738Z,5.13
2022-10-26T02:19:45.235Z,5.70
2022-10-26T02:22:52.010Z,6.03
2022-10-26T02:25:59.363Z,5.67
2022-10-26T02:29:08.951Z,5.60
2022-10-26T02:32:12.570Z,5.28
2022-10-26T02:35:17.100Z,6.65
2022-10-26T02:38:21.514Z,5.63
2022-10-26T02:41:30.737Z,5.13
2022-10-26T02:44:41.781Z,5.55
2022-10-26T02:47:44.090Z,5.22
2022-10-26T02:51:11.398Z,5.93
2022-10-26T02:54:25.585Z,5.43
2022-10-26T02:57:34.631Z,5.40
2022-10-26T03:00:36.684Z,6.07
2022-10-26T03:03:41.113Z,6.13
2022-10-26T03:06:43.092Z,5.00
2022-10-26T03:09:45.129Z,6.30
2022-10-26T03:12:47.520Z,4.30
2022-10-26T03:15:50.247Z,4.72
2022-10-26T03:18:52.340Z,3.58
2022-10-26T03:21:54.444Z,3.92
2022-10-26T03:24:57.565Z,4.57
2022-10-26T03:28:00.908Z,3.90
2022-10-26T03:31:03.139Z,4.53
2022-10-26T03:34:06.606Z,4.78
2022-10-26T03:37:10.063Z,4.55
2022-10-26T03:40:12.422Z,3.78
2022-10-26T03:43:14.491Z,4.30
2022-10-26T03:46:17.385Z,4.68
2022-10-26T03:49:19.410Z,4.70
2022-10-26T03:52:24.306Z,4.60
2022-10-26T03:55:26.271Z,5.72
2022-10-26T03:58:28.374Z,4.32
2022-10-26T04:01:32.698Z,4.38
2022-10-26T04:04:35.025Z,5.57
2022-10-26T04:07:37.121Z,6.13
2022-10-26T04:10:39.209Z,4.88
2022-10-26T04:13:41.149Z,5.45
2022-10-26T04:16:43.169Z,5.55
2022-10-26T04:19:45.171Z,5.93
2022-10-26T04:22:47.149Z,4.30
2022-10-26T04:25:49.218Z,5.43
2022-10-26T04:28:51.296Z,6.53
2022-10-26T04:31:53.584Z,6.70
2022-10-26T04:34:55.817Z,6.78
2022-10-26T04:38:02.355Z,6.05
2022-10-26T04:41:04.491Z,5.45
2022-10-26T04:44:06.524Z,5.28
2022-10-26T04:47:08.544Z,5.32
2022-10-26T04:50:12.814Z,6.15
2022-10-26T04:53:14.930Z,5.20
2022-10-26T04:56:17.015Z,4.75
2022-10-26T04:59:19.102Z,5.25
2022-10-26T05:02:21.396Z,4.35
2022-10-26T05:05:25.085Z,5.03
2022-10-26T05:08:29.120Z,6.15
2022-10-26T05:11:31.253Z,6.10
2022-10-26T05:14:33.500Z,5.28
2022-10-26T05:17:35.595Z,5.85
2022-10-26T05:20:37.777Z,5.38
2022-10-26T05:23:39.882Z,4.13
2022-10-26T05:26:42.228Z,4.75
2022-10-26T05:29:44.380Z,5.05
2022-10-26T05:32:54.050Z,5.13
2022-10-26T05:35:56.254Z,4.88
2022-10-26T05:38:59.190Z,4.47
2022-10-26T05:42:01.544Z,4.38
2022-10-26T05:45:04.088Z,3.42
2022-10-26T05:48:06.600Z,4.10
2022-10-26T05:51:08.959Z,3.03
2022-10-26T05:54:13.760Z,4.45
2022-10-26T05:57:16.533Z,4.35
2022-10-26T06:00:21.783Z,4.28
2022-10-26T06:03:46.207Z,4.20
2022-10-26T06:06:53.532Z,4.15
2022-10-26T06:09:56.304Z,4.40
2022-10-26T06:12:58.631Z,4.03
2022-10-26T06:16:24.499Z,3.92
2022-10-26T06:19:48.124Z,4.32
2022-10-26T06:23:15.195Z,5.38
2022-10-26T06:26:43.281Z,5.15
2022-10-26T06:29:56.612Z,5.32
2022-10-26T06:33:11.450Z,5.22
2022-10-26T06:36:27.158Z,4.40
2022-10-26T06:39:32.378Z,5.75
2022-10-26T06:42:34.569Z,5.20
2022-10-26T06:45:37.322Z,6.38
2022-10-26T06:48:58.432Z,6.00
2022-10-26T06:52:08.547Z,5.15
2022-10-26T06:55:15.651Z,5.43
2022-10-26T06:58:19.979Z,6.95
2022-10-26T07:01:22.123Z,6.45
2022-10-26T07:04:24.402Z,6.18
2022-10-26T07:07:30.536Z,7.20
2022-10-26T07:10:32.970Z,5.07
2022-10-26T07:13:35.153Z,5.50
2022-10-26T07:16:37.592Z,5.20
2022-10-26T07:19:40.673Z,5.63
2022-10-26T07:22:45.808Z,5.80
2022-10-26T07:25:47.742Z,5.57
2022-10-26T07:28:50.803Z,5.18
2022-10-26T07:34:56.879Z,5.50
2022-10-26T07:37:59.639Z,5.00
2022-10-26T07:41:02.902Z,5.13
2022-10-26T07:44:05.201Z,6.10
2022-10-26T07:47:07.196Z,4.40
2022-10-26T07:50:12.217Z,5.60
2022-10-26T07:53:14.969Z,4.72
2022-10-26T07:56:17.206Z,5.75
2022-10-26T07:59:19.446Z,5.65
2022-10-26T08:02:21.917Z,5.03
2022-10-26T08:05:24.092Z,5.30
2022-10-26T08:08:26.459Z,4.22
2022-10-26T08:11:28.726Z,4.93
2022-10-26T08:14:30.825Z,5.55
2022-10-26T08:17:33.155Z,4.70
2022-10-26T08:20:35.926Z,5.13
2022-10-26T08:23:38.081Z,5.15
2022-10-26T08:26:40.296Z,4.07
2022-10-26T08:29:42.800Z,4.70
2022-10-26T08:32:45.013Z,4.55
2022-10-26T08:35:48.018Z,4.60
2022-10-26T08:38:50.295Z,4.18
2022-10-26T08:42:01.620Z,3.85
2022-10-26T08:45:28.135Z,4.32
2022-10-26T08:48:36.436Z,3.72
2022-10-26T08:51:42.720Z,4.25
2022-10-26T08:54:55.748Z,4.32
2022-10-26T08:58:01.782Z,4.63
2022-10-26T09:01:05.659Z,5.28
2022-10-26T09:04:12.934Z,4.63
2022-10-26T09:07:26.173Z,5.32
2022-10-26T09:10:34.225Z,4.78
2022-10-26T09:14:10.178Z,4.90
2022-10-26T09:17:41.285Z,3.78
2022-10-26T09:20:49.175Z,4.32
2022-10-26T09:24:09.728Z,3.65
2022-10-26T09:27:40.094Z,4.45
2022-10-26T09:30:45.837Z,4.07
2022-10-26T09:33:48.324Z,4.57
2022-10-26T09:36:54.321Z,4.32
2022-10-26T09:40:07.577Z,3.92
2022-10-26T09:43:38.807Z,5.38
2022-10-26T09:46:49.369Z,4.53
2022-10-26T09:50:01.900Z,5.72
2022-10-26T09:53:04.307Z,5.45
2022-10-26T09:56:12.424Z,4.95
2022-10-26T09:59:15.942Z,5.13
2022-10-26T10:02:37.901Z,5.90
2022-10-26T10:05:55.869Z,5.55
2022-10-26T10:09:18.684Z,4.55
2022-10-26T10:12:21.534Z,4.45
2022-10-26T10:15:25.616Z,3.90
2022-10-26T10:18:27.830Z,3.72
2022-10-26T10:21:48.509Z,3.70
2022-10-26T10:25:01.859Z,5.80
2022-10-26T10:28:25.856Z,3.83
2022-10-26T10:31:32.747Z,5.03
2022-10-26T10:34:36.202Z,3.90
2022-10-26T10:37:46.098Z,4.53
2022-10-26T10:40:56.616Z,4.65
2022-10-26T10:44:22.731Z,5.47
2022-10-26T10:47:31.757Z,4.85
2022-10-26T10:50:36.550Z,5.90
2022-10-26T10:54:30.434Z,3.67
2022-10-26T10:58:10.054Z,3.70
2022-10-26T11:01:15.746Z,4.28
2022-10-26T11:04:39.690Z,2.75
2022-10-26T11:08:12.532Z,4.70
2022-10-26T11:11:21.259Z,4.20
2022-10-26T11:14:46.327Z,4.93
2022-10-26T11:18:24.923Z,3.35
2022-10-26T11:21:30.637Z,3.13
2022-10-26T11:24:42.063Z,4.13
2022-10-26T11:27:49.614Z,3.88
2022-10-26T11:31:00.389Z,3.78
2022-10-26T11:34:20.792Z,3.60
2022-10-26T11:37:31.012Z,3.47
2022-10-26T11:40:47.831Z,3.58
2022-10-26T11:43:57.410Z,2.83
2022-10-26T11:47:10.270Z,3.03
2022-10-26T11:50:27.178Z,2.85
2022-10-26T11:53:41.257Z,3.78
2022-10-26T11:56:55.648Z,2.92
2022-10-26T12:00:03.756Z,2.67
2022-10-26T12:03:17.433Z,2.70
2022-10-26T12:06:25.055Z,2.53
2022-10-26T12:09:35.530Z,2.93
2022-10-26T12:12:55.151Z,2.13
2022-10-26T12:16:10.661Z,1.73
2022-10-26T12:22:39.658Z,2.58
2022-10-26T12:25:41.934Z,2.03
2022-10-26T12:28:44.219Z,2.72
2022-10-26T12:31:46.535Z,2.47
2022-10-26T12:34:53.472Z,2.65
2022-10-26T12:37:56.212Z,2.33
2022-10-26T12:41:04.142Z,2.03
2022-10-26T12:44:39.680Z,2.47
2022-10-26T12:47:49.075Z,1.95
2022-10-26T12:50:52.689Z,3.05
2022-10-26T12:54:13.155Z,2.17
2022-10-26T12:57:24.435Z,2.55
2022-10-26T13:00:28.485Z,2.65
2022-10-26T13:03:41.108Z,3.33
2022-10-26T13:07:23.553Z,3.58
2022-10-26T13:14:37.384Z,1.88
2022-10-26T13:17:39.796Z,2.22
2022-10-26T13:21:06.790Z,2.20
2022-10-26T13:24:16.021Z,3.53
2022-10-26T13:30:49.358Z,1.80
2022-10-26T13:33:56.685Z,1.60
2022-10-26T13:37:12.148Z,2.28
2022-10-26T13:40:18.953Z,3.17
2022-10-26T13:43:23.845Z,2.03
2022-10-26T13:46:28.165Z,2.72
2022-10-26T13:49:41.660Z,3.10
2022-10-26T13:52:48.298Z,2.42
2022-10-26T13:56:17.809Z,2.58
2022-10-26T13:59:21.089Z,1.98
2022-10-26T14:02:28.212Z,3.30
2022-10-26T14:05:32.011Z,2.75
2022-10-26T14:08:34.188Z,2.42
2022-10-26T14:11:44.666Z,3.40
2022-10-26T14:14:47.350Z,2.67
2022-10-26T14:17:54.143Z,2.95
2022-10-26T14:21:04.197Z,2.45
2022-10-26T14:24:27.479Z,2.78
2022-10-26T14:27:40.166Z,1.80
2022-10-26T14:33:51.908Z,2.17
2022-10-26T14:37:03.725Z,1.85
2022-10-26T14:40:09.668Z,2.97
2022-10-26T14:43:19.443Z,2.58
2022-10-26T14:49:28.709Z,2.97
2022-10-26T14:52:34.733Z,4.07
2022-10-26T14:55:55.197Z,3.95
2022-10-26T14:58:58.524Z,4.00
2022-10-26T15:02:21.374Z,5.38
2022-10-26T15:05:46.038Z,6.43
2022-10-26T15:12:28.067Z,3.28
2022-10-26T15:15:30.250Z,3.67
2022-10-26T15:18:38.584Z,2.72
2022-10-26T15:21:48.882Z,2.45
2022-10-26T15:24:54.905Z,3.17
2022-10-26T15:28:22.683Z,3.63
2022-10-26T15:31:59.895Z,3.47
2022-10-26T15:35:22.843Z,4.03
2022-10-26T15:38:31.884Z,3.33
2022-10-26T15:41:43.008Z,4.60
2022-10-26T16:11:43.214Z,5.82
2022-10-26T16:15:04.108Z,3.40
2022-10-26T16:18:11.519Z,4.35
2022-10-26T16:21:38.448Z,4.85
2022-10-26T16:24:43.089Z,4.53
2022-10-26T16:27:46.287Z,4.30
2022-10-26T16:30:48.979Z,5.28
2022-10-26T16:33:51.248Z,4.18
2022-10-26T16:36:54.007Z,4.63
2022-10-26T16:39:56.148Z,4.78
2022-10-26T16:43:10.666Z,5.97
2022-10-26T16:46:19.803Z,6.70
2022-10-26T16:49:21.846Z,5.93
2022-10-26T16:52:52.008Z,5.80
2022-10-26T16:56:22.585Z,6.05
2022-10-26T16:59:28.648Z,6.70
2022-10-26T17:02:30.997Z,5.63
2022-10-26T17:05:36.136Z,5.53
2022-10-26T17:08:42.253Z,4.85
2022-10-26T17:11:51.801Z,5.55
2022-10-26T17:14:59.040Z,5.43
2022-10-26T17:18:01.293Z,4.95
2022-10-26T17:21:09.410Z,6.95
2022-10-26T17:24:15.533Z,5.70
2022-10-26T17:27:17.783Z,6.10
2022-10-26T17:30:25.622Z,7.70
2022-10-26T17:33:52.160Z,5.90
2022-10-26T17:36:59.899Z,5.68
2022-10-26T17:40:02.154Z,5.70
2022-10-26T17:43:04.473Z,5.50
2022-10-26T17:46:30.446Z,4.72
2022-10-26T17:49:36.073Z,4.10
2022-10-26T17:52:38.563Z,5.47
2022-10-26T17:55:41.106Z,4.30
2022-10-26T17:58:45.202Z,5.00
2022-10-26T18:01:49.475Z,5.65
2022-10-26T18:04:54.429Z,4.57
2022-10-26T18:08:09.976Z,5.20
2022-10-26T18:11:25.274Z,4.93
2022-10-26T18:14:28.717Z,4.63
2022-10-26T18:17:30.849Z,5.35
2022-10-26T18:20:34.131Z,4.88
2022-10-26T18:23:37.093Z,5.22
2022-10-26T18:26:39.097Z,6.03
2022-10-26T18:29:41.145Z,5.45
2022-10-26T18:32:43.136Z,6.63
2022-10-26T18:35:46.391Z,6.05
2022-10-26T18:38:48.664Z,7.60
2022-10-26T18:41:53.201Z,6.03
2022-10-26T18:45:00.674Z,7.85
2022-10-26T18:48:02.732Z,7.57
2022-10-26T18:51:06.956Z,5.68
2022-10-26T18:54:10.741Z,6.60
2022-10-26T18:57:12.765Z,6.55
2022-10-26T19:00:24.011Z,6.05
2022-10-26T19:03:27.407Z,6.03
2022-10-26T19:06:32.847Z,6.35
2022-10-26T19:09:35.259Z,8.15
2022-10-26T19:12:44.614Z,8.00
2022-10-26T19:16:02.440Z,6.35
2022-10-26T19:19:10.699Z,6.18
2022-10-26T19:22:12.719Z,6.35
2022-10-26T19:25:14.812Z,7.07
2022-10-26T19:28:16.798Z,6.80
2022-10-26T19:31:20.688Z,7.75
2022-10-26T19:34:26.307Z,7.72
2022-10-26T19:41:04.340Z,8.77
2022-10-26T19:44:13.760Z,8.68
2022-10-26T19:50:40.709Z,9.60
2022-10-26T19:53:48.413Z,10.50
2022-10-26T20:01:07.145Z,10.40
2022-10-26T20:08:03.563Z,9.52
2022-10-26T20:15:44.075Z,9.65
2022-10-26T20:18:48.140Z,8.52
2022-10-26T20:21:58.381Z,8.98
2022-10-26T20:25:05.431Z,8.48
2022-10-26T20:28:13.024Z,10.15
2022-10-26T20:35:20.176Z,8.98
2022-10-26T20:38:22.573Z,7.68
2022-10-26T20:41:27.556Z,9.48
2022-10-26T20:45:16.046Z,9.55
2022-10-26T20:48:20.940Z,9.80
2022-10-26T20:52:19.324Z,9.40
2022-10-26T20:55:57.100Z,7.77
2022-10-26T20:59:06.778Z,8.85
2022-10-26T21:02:13.758Z,8.38
2022-10-26T21:05:22.616Z,8.35
2022-10-26T21:08:28.594Z,10.10
2022-10-26T21:11:32.309Z,8.77
2022-10-26T21:14:44.694Z,8.82
2022-10-26T21:18:19.299Z,10.10
2022-10-26T21:21:22.352Z,8.93
2022-10-26T21:31:59.243Z,9.40
2022-10-26T21:35:39.263Z,9.43
2022-10-26T21:38:49.618Z,10.88
2022-10-26T21:41:52.773Z,9.63
2022-10-26T21:44:57.961Z,9.35
2022-10-26T21:48:02.423Z,9.05
2022-10-26T21:51:19.970Z,11.07
2022-10-26T21:54:25.731Z,9.32
2022-10-26T21:58:20.169Z,9.23
2022-10-26T22:01:47.840Z,9.60
2022-10-26T22:04:51.215Z,9.00
2022-10-26T22:07:53.527Z,9.32
2022-10-26T22:10:56.599Z,9.27
2022-10-26T22:13:58.966Z,8.73
2022-10-26T22:17:01.981Z,8.57
2022-10-26T22:20:07.588Z,9.77
2022-10-26T22:23:11.938Z,9.15
2022-10-26T22:29:56.549Z,8.13
2022-10-26T22:32:58.768Z,7.22
2022-10-26T22:36:10.743Z,8.13
2022-10-26T22:39:12.958Z,8.65
2022-10-26T22:42:15.133Z,8.40
2022-10-26T22:45:19.061Z,9.68
2022-10-26T22:48:21.739Z,8.80
2022-10-26T22:51:52.208Z,8.85
2022-10-26T22:54:54.317Z,8.63
2022-10-26T22:57:56.536Z,8.48
2022-10-26T23:01:06.477Z,9.10
2022-10-26T23:04:11.909Z,9.50
2022-10-26T23:07:14.038Z,8.93
2022-10-26T23:10:19.390Z,8.52
2022-10-26T23:13:24.319Z,9.05
2022-10-26T23:16:30.427Z,10.18
2022-10-26T23:19:36.181Z,9.55
2022-10-26T23:22:38.750Z,8.57
2022-10-26T23:25:41.135Z,8.55
2022-10-26T23:28:46.123Z,7.82
2022-10-26T23:31:48.995Z,8.23
2022-10-26T23:34:53.302Z,7.90
2022-10-26T23:37:58.916Z,8.68
2022-10-26T23:41:00.943Z,8.15
2022-10-26T23:44:03.425Z,7.32
2022-10-26T23:47:07.407Z,8.52
2022-10-26T23:50:09.669Z,7.72
2022-10-26T23:53:13.335Z,8.00
2022-10-26T23:56:16.710Z,7.32
2022-10-26T23:59:19.832Z,7.32
